Time;durP1;ratioP1;P1;durP2;ratioP2;P2;SDS_P1;SDS_P2;PMS_P1;PMS_P2;Temp;Humidity;BMP_temperature;BMP_pressure;BME280_temperature;BME280_humidity;BME280_pressure;Samples;Min_cycle;Max_cycle;Signal;HPM_P1;HPM_P2
2021/03/25 00:00:13;;;;;;;95.80;42.83;;;;;;;;;;5052322;28;20060;-80
2021/03/25 00:02:40;;;;;;;99.28;43.92;;;;;;;;;;5053006;28;20494;-80
2021/03/25 00:05:15;;;;;;;97.15;44.80;;;;;;;;;;5055170;28;20180;-80
2021/03/25 00:07:41;;;;;;;97.10;44.30;;;;;;;;;;5054504;28;20064;-80
2021/03/25 00:10:23;;;;;;;110.35;44.95;;;;;;;;;;5054490;28;20056;-79
2021/03/25 00:12:51;;;;;;;101.18;46.78;;;;;;;;;;5038920;28;20060;-80
2021/03/25 00:15:22;;;;;;;94.65;44.55;;;;;;;;;;5038708;28;20060;-79
2021/03/25 00:17:48;;;;;;;89.07;41.63;;;;;;;;;;5054962;28;20049;-79
2021/03/25 00:20:15;;;;;;;93.13;43.35;;;;;;;;;;5055344;28;20416;-79
2021/03/25 00:22:41;;;;;;;94.95;43.88;;;;;;;;;;5054379;28;20139;-80
2021/03/25 00:25:13;;;;;;;97.10;44.67;;;;;;;;;;5036799;28;20115;-80
2021/03/25 00:27:42;;;;;;;91.53;42.72;;;;;;;;;;5054148;28;20044;-80
2021/03/25 00:30:10;;;;;;;94.45;41.95;;;;;;;;;;5056042;28;20056;-80
2021/03/25 00:32:36;;;;;;;113.03;47.72;;;;;;;;;;5057133;28;20052;-79
2021/03/25 00:35:10;;;;;;;106.20;48.72;;;;;;;;;;5058985;28;20535;-79
2021/03/25 00:37:36;;;;;;;104.32;46.58;;;;;;;;;;5066759;28;20148;-80
2021/03/25 00:40:03;;;;;;;111.88;47.50;;;;;;;;;;5068939;28;20057;-80
2021/03/25 00:42:29;;;;;;;98.93;46.13;;;;;;;;;;5068966;28;20053;-80
2021/03/25 00:44:58;;;;;;;106.97;48.60;;;;;;;;;;5052196;28;20340;-80
2021/03/25 00:47:26;;;;;;;103.00;46.65;;;;;;;;;;5069360;28;20045;-79
2021/03/25 00:49:53;;;;;;;116.57;48.83;;;;;;;;;;5083576;28;20413;-80
2021/03/25 00:52:32;;;;;;;106.53;49.03;;;;;;;;;;5066432;28;20184;-80
2021/03/25 00:55:03;;;;;;;97.38;45.08;;;;;;;;;;5046646;28;20394;-80
2021/03/25 00:57:33;;;;;;;106.38;48.00;;;;;;;;;;5059995;28;20059;-80
2021/03/25 01:00:02;;;;;;;113.80;50.80;;;;;;;;;;5044356;28;20049;-79
2021/03/25 01:02:31;;;;;;;104.72;49.30;;;;;;;;;;5040728;28;20297;-80
2021/03/25 01:04:57;;;;;;;104.78;47.65;;;;;;;;;;5037003;28;20076;-79
2021/03/25 01:07:27;;;;;;;119.85;50.50;;;;;;;;;;5038439;28;20258;-80
2021/03/25 01:09:53;;;;;;;115.53;50.20;;;;;;;;;;5070972;28;20106;-80
2021/03/25 01:12:22;;;;;;;112.43;49.83;;;;;;;;;;5054954;28;20429;-80
2021/03/25 01:14:52;;;;;;;117.60;51.53;;;;;;;;;;5058170;28;20049;-80
2021/03/25 01:17:21;;;;;;;105.95;49.28;;;;;;;;;;5041518;28;20053;-80
2021/03/25 01:19:51;;;;;;;106.80;49.22;;;;;;;;;;5058515;28;20100;-80
2021/03/25 01:22:25;;;;;;;107.78;48.85;;;;;;;;;;5058095;28;20045;-80
2021/03/25 01:24:54;;;;;;;111.63;47.83;;;;;;;;;;5055708;28;20145;-80
2021/03/25 01:27:20;;;;;;;100.68;46.85;;;;;;;;;;5074694;28;20056;-80
2021/03/25 01:29:46;;;;;;;104.90;47.33;;;;;;;;;;5061345;28;20095;-80
2021/03/25 01:32:12;;;;;;;101.55;46.65;;;;;;;;;;5060644;28;20216;-79
2021/03/25 01:34:38;;;;;;;96.50;45.75;;;;;;;;;;5043430;28;20139;-79
2021/03/25 01:37:08;;;;;;;97.68;46.83;;;;;;;;;;5041436;28;20115;-79
2021/03/25 01:39:36;;;;;;;107.47;46.83;;;;;;;;;;5041061;28;20123;-80
2021/03/25 01:42:17;;;;;;;110.05;48.30;;;;;;;;;;5036625;28;20053;-80
2021/03/25 01:44:44;;;;;;;118.35;50.03;;;;;;;;;;5040608;28;20050;-80
2021/03/25 01:47:15;;;;;;;102.60;48.47;;;;;;;;;;5044073;28;20064;-79
2021/03/25 01:49:45;;;;;;;118.95;51.45;;;;;;;;;;5050172;28;20076;-80
2021/03/25 01:52:17;;;;;;;111.93;49.22;;;;;;;;;;5060908;28;20041;-80
2021/03/25 01:54:53;;;;;;;112.60;49.25;;;;;;;;;;5055974;28;20436;-81
2021/03/25 01:57:32;;;;;;;121.85;51.03;;;;;;;;;;5056040;28;20258;-80
2021/03/25 02:00:01;;;;;;;104.25;49.47;;;;;;;;;;5058742;28;20064;-80
2021/03/25 02:02:33;;;;;;;103.88;48.55;;;;;;;;;;5058371;28;20052;-81
2021/03/25 02:05:03;;;;;;;104.63;48.22;;;;;;;;;;5057463;28;20136;-80
2021/03/25 02:07:39;;;;;;;106.57;48.80;;;;;;;;;;5055772;28;20354;-80
2021/03/25 02:10:05;;;;;;;;;;;;;;;;;;5058448;28;20066;-81
2021/03/25 02:12:37;;;;;;;106.53;47.85;;;;;;;;;;5058867;28;19966;-80
2021/03/25 02:15:06;;;;;;;103.20;46.70;;;;;;;;;;5054973;28;20383;-80
2021/03/25 02:17:54;;;;;;;94.70;45.05;;;;;;;;;;5055641;28;20107;-80
2021/03/25 02:20:41;;;;;;;96.45;44.35;;;;;;;;;;5054714;28;20053;-80
2021/03/25 02:23:26;;;;;;;97.35;45.58;;;;;;;;;;5063772;28;20059;-80
2021/03/25 02:26:05;;;;;;;95.93;46.83;;;;;;;;;;5059092;28;20063;-81
2021/03/25 02:28:49;;;;;;;112.47;48.88;;;;;;;;;;5054436;28;20055;-81
2021/03/25 02:31:19;;;;;;;100.32;44.42;;;;;;;;;;5056013;28;20146;-81
2021/03/25 02:33:50;;;;;;;111.30;47.20;;;;;;;;;;5055783;28;20099;-81
2021/03/25 02:36:19;;;;;;;105.50;43.60;;;;;;;;;;5055004;28;20114;-80
2021/03/25 02:38:54;;;;;;;102.28;45.10;;;;;;;;;;5076971;28;20052;-81
2021/03/25 02:41:24;;;;;;;110.05;46.83;;;;;;;;;;5077296;28;20052;-81
2021/03/25 02:44:03;;;;;;;106.32;46.55;;;;;;;;;;5078658;28;20454;-81
2021/03/25 02:46:37;;;;;;;103.63;47.05;;;;;;;;;;5058594;28;20064;-82
2021/03/25 02:49:06;;;;;;;108.72;46.70;;;;;;;;;;5039191;28;20079;-82
2021/03/25 02:51:40;;;;;;;98.07;45.30;;;;;;;;;;5036694;28;20057;-81
2021/03/25 02:54:07;;;;;;;102.43;45.28;;;;;;;;;;5035274;28;20069;-81
2021/03/25 02:56:38;;;;;;;101.05;45.50;;;;;;;;;;5037121;28;20274;-81
2021/03/25 02:59:06;;;;;;;103.72;45.17;;;;;;;;;;5037773;28;20057;-81
2021/03/25 03:01:35;;;;;;;99.13;44.53;;;;;;;;;;5038427;28;20053;-81
2021/03/25 03:04:05;;;;;;;101.15;44.83;;;;;;;;;;5037749;28;20511;-81
2021/03/25 03:06:37;;;;;;;92.18;42.58;;;;;;;;;;5040267;28;20224;-82
2021/03/25 03:09:12;;;;;;;95.55;43.83;;;;;;;;;;5042085;28;20049;-81
2021/03/25 03:11:46;;;;;;;97.53;44.95;;;;;;;;;;5041300;28;20076;-82
2021/03/25 03:14:39;;;;;;;110.65;44.70;;;;;;;;;;5039050;28;20144;-81
2021/03/25 03:17:07;;;;;;;115.18;46.55;;;;;;;;;;5036276;28;20050;-81
2021/03/25 03:19:52;;;;;;;103.50;47.38;;;;;;;;;;5037600;28;20053;-81
2021/03/25 03:22:18;;;;;;;96.13;45.38;;;;;;;;;;5048561;28;20106;-81
2021/03/25 03:24:46;;;;;;;101.88;46.05;;;;;;;;;;5058865;28;20056;-81
2021/03/25 03:27:17;;;;;;;99.00;45.10;;;;;;;;;;5057114;28;20088;-81
2021/03/25 03:29:47;;;;;;;109.07;47.78;;;;;;;;;;5060162;28;20053;-80
2021/03/25 03:32:18;;;;;;;97.97;44.13;;;;;;;;;;5059626;28;20049;-81
2021/03/25 03:34:45;;;;;;;94.15;44.25;;;;;;;;;;5057273;28;20060;-81
2021/03/25 03:37:17;;;;;;;93.68;43.00;;;;;;;;;;5074716;28;20240;-81
2021/03/25 03:39:51;;;;;;;97.87;41.73;;;;;;;;;;5092623;28;20044;-81
2021/03/25 03:42:19;;;;;;;98.50;43.90;;;;;;;;;;5094336;28;20063;-81
2021/03/25 03:44:50;;;;;;;96.65;44.67;;;;;;;;;;5075723;28;20047;-81
2021/03/25 03:47:18;;;;;;;95.25;44.60;;;;;;;;;;5060128;28;20118;-81
2021/03/25 03:49:46;;;;;;;94.22;42.20;;;;;;;;;;5070358;28;20091;-81
2021/03/25 03:52:14;;;;;;;99.95;45.00;;;;;;;;;;5078982;28;20041;-81
2021/03/25 03:54:41;;;;;;;99.97;45.75;;;;;;;;;;5087749;28;20054;-81
2021/03/25 03:57:18;;;;;;;97.38;45.22;;;;;;;;;;5084066;28;20049;-81
2021/03/25 03:59:47;;;;;;;86.68;42.58;;;;;;;;;;5082057;28;20102;-81
2021/03/25 04:02:14;;;;;;;97.68;43.03;;;;;;;;;;5079170;28;20048;-81
2021/03/25 04:04:44;;;;;;;94.85;43.30;;;;;;;;;;5077950;28;20147;-80
2021/03/25 04:07:15;;;;;;;98.53;44.95;;;;;;;;;;5077100;28;20052;-80
2021/03/25 04:10:03;;;;;;;91.38;43.35;;;;;;;;;;5077080;28;20049;-81
2021/03/25 04:12:38;;;;;;;104.15;44.25;;;;;;;;;;5073926;28;20156;-80
2021/03/25 04:15:14;;;;;;;98.75;43.78;;;;;;;;;;5074368;28;20424;-80
2021/03/25 04:17:43;;;;;;;90.47;39.83;;;;;;;;;;5059260;28;20080;-81
2021/03/25 04:20:15;;;;;;;89.57;41.22;;;;;;;;;;5077360;28;20059;-81
2021/03/25 04:22:43;;;;;;;96.10;42.35;;;;;;;;;;5058901;28;20057;-81
2021/03/25 04:25:19;;;;;;;88.00;41.22;;;;;;;;;;5059105;28;20075;-81
2021/03/25 04:27:51;;;;;;;96.80;41.25;;;;;;;;;;5077923;28;20044;-81
2021/03/25 04:30:23;;;;;;;88.60;41.33;;;;;;;;;;5082856;28;20048;-81
2021/03/25 04:32:50;;;;;;;86.95;40.15;;;;;;;;;;5073523;28;20044;-81
2021/03/25 04:35:20;;;;;;;83.53;41.92;;;;;;;;;;5089971;28;20044;-81
2021/03/25 04:37:47;;;;;;;90.25;42.70;;;;;;;;;;5080357;28;20064;-81
2021/03/25 04:40:17;;;;;;;92.35;41.13;;;;;;;;;;5058847;28;20212;-81
2021/03/25 04:42:43;;;;;;;102.05;42.38;;;;;;;;;;5059501;28;20220;-82
2021/03/25 04:45:16;;;;;;;89.78;41.63;;;;;;;;;;5077480;28;20107;-81
2021/03/25 04:47:43;;;;;;;93.93;43.90;;;;;;;;;;5079490;28;20063;-82
2021/03/25 04:50:13;;;;;;;92.70;42.42;;;;;;;;;;5081867;28;20056;-83
2021/03/25 04:52:39;;;;;;;90.13;40.42;;;;;;;;;;5071841;28;20040;-81
2021/03/25 04:55:08;;;;;;;90.10;42.00;;;;;;;;;;5093525;28;20056;-82
2021/03/25 04:57:37;;;;;;;97.93;42.05;;;;;;;;;;5051578;28;20110;-81
2021/03/25 05:00:12;;;;;;;88.05;40.75;;;;;;;;;;5053013;28;20118;-79
2021/03/25 05:02:44;;;;;;;87.50;41.60;;;;;;;;;;5067747;28;20096;-81
2021/03/25 05:05:17;;;;;;;88.25;42.88;;;;;;;;;;5058794;28;20045;-81
2021/03/25 05:07:46;;;;;;;91.57;43.75;;;;;;;;;;5058223;28;20110;-81
2021/03/25 05:10:29;;;;;;;98.80;42.05;;;;;;;;;;5057728;28;20057;-80
2021/03/25 05:12:58;;;;;;;84.57;41.08;;;;;;;;;;5059656;28;20171;-81
2021/03/25 05:15:25;;;;;;;96.35;41.28;;;;;;;;;;5065341;28;20148;-80
2021/03/25 05:18:14;;;;;;;90.78;40.80;;;;;;;;;;5060373;28;20391;-81
2021/03/25 05:21:07;;;;;;;92.65;41.05;;;;;;;;;;5057609;28;20053;-82
2021/03/25 05:23:41;;;;;;;82.55;42.40;;;;;;;;;;5052516;28;20053;-82
2021/03/25 05:26:09;;;;;;;84.47;43.08;;;;;;;;;;5055850;28;20084;-82
2021/03/25 05:28:37;;;;;;;93.35;42.67;;;;;;;;;;5056959;28;20049;-82
2021/03/25 05:31:05;;;;;;;104.50;46.90;;;;;;;;;;5057914;28;20139;-82
2021/03/25 05:33:32;;;;;;;95.75;43.25;;;;;;;;;;5057566;28;20278;-82
2021/03/25 05:36:03;;;;;;;92.63;44.80;;;;;;;;;;5057661;28;20186;-82
2021/03/25 05:38:29;;;;;;;91.95;44.97;;;;;;;;;;5064664;28;20049;-81
2021/03/25 05:41:17;;;;;;;97.88;43.55;;;;;;;;;;5065820;28;20116;-81
2021/03/25 05:44:08;;;;;;;103.60;45.45;;;;;;;;;;5069590;28;20116;-81
2021/03/25 05:46:34;;;;;;;97.10;46.83;;;;;;;;;;5067317;28;20063;-80
2021/03/25 05:49:14;;;;;;;98.45;43.92;;;;;;;;;;5062261;28;20184;-82
2021/03/25 05:51:47;;;;;;;102.60;48.00;;;;;;;;;;5054161;28;20049;-82
2021/03/25 05:54:36;;;;;;;107.05;47.55;;;;;;;;;;5055826;28;20209;-81
2021/03/25 05:57:23;;;;;;;90.85;44.90;;;;;;;;;;5053942;28;20166;-81
2021/03/25 05:59:54;;;;;;;82.75;41.63;;;;;;;;;;5034028;28;20064;-81
2021/03/25 06:02:40;;;;;;;90.10;39.67;;;;;;;;;;5048846;28;20498;-81
2021/03/25 06:05:17;;;;;;;84.00;39.50;;;;;;;;;;5064835;28;20062;-82
2021/03/25 06:07:48;;;;;;;84.57;39.80;;;;;;;;;;5047917;28;20045;-81
2021/03/25 06:10:26;;;;;;;86.75;42.17;;;;;;;;;;5052603;28;20049;-82
2021/03/25 06:12:55;;;;;;;77.88;37.70;;;;;;;;;;5050666;28;20041;-81
2021/03/25 06:15:40;;;;;;;71.88;37.10;;;;;;;;;;5051967;28;20106;-82
2021/03/25 06:18:22;;;;;;;71.28;35.35;;;;;;;;;;5052747;28;20056;-81
2021/03/25 06:20:49;;;;;;;75.18;34.65;;;;;;;;;;5056766;28;20237;-80
2021/03/25 06:23:34;;;;;;;71.25;35.50;;;;;;;;;;5057587;28;20052;-81
2021/03/25 06:26:08;;;;;;;;;;;;;;;;;;5047126;28;20201;-81
2021/03/25 06:28:34;;;;;;;71.57;35.80;;;;;;;;;;5033000;28;20092;-81
2021/03/25 06:31:11;;;;;;;67.28;34.75;;;;;;;;;;5063322;28;20049;-81
2021/03/25 06:33:37;;;;;;;67.28;34.58;;;;;;;;;;5035960;28;20049;-81
2021/03/25 06:36:05;;;;;;;77.57;38.03;;;;;;;;;;5054409;28;20124;-81
2021/03/25 06:38:37;;;;;;;73.78;35.13;;;;;;;;;;5062615;28;20118;-82
2021/03/25 06:41:05;;;;;;;74.07;37.15;;;;;;;;;;5051247;28;20416;-81
2021/03/25 06:43:34;;;;;;;68.20;34.15;;;;;;;;;;5070562;28;20420;-81
2021/03/25 06:46:07;;;;;;;72.28;34.20;;;;;;;;;;5071643;28;20090;-81
2021/03/25 06:48:36;;;;;;;74.25;35.50;;;;;;;;;;5069331;28;20064;-82
2021/03/25 06:51:13;;;;;;;73.22;35.45;;;;;;;;;;5069112;28;20048;-82
2021/03/25 06:53:39;;;;;;;61.00;34.10;;;;;;;;;;5053286;28;20044;-80
2021/03/25 06:56:07;;;;;;;67.70;36.28;;;;;;;;;;5052358;28;20282;-80
2021/03/25 06:58:38;;;;;;;62.60;33.20;;;;;;;;;;5065462;28;20225;-81
2021/03/25 07:01:22;;;;;;;65.40;33.75;;;;;;;;;;5064682;28;20052;-81
2021/03/25 07:04:14;;;;;;;59.20;33.38;;;;;;;;;;5073238;28;20056;-81
2021/03/25 07:06:47;;;;;;;67.63;35.00;;;;;;;;;;5070220;28;20184;-81
2021/03/25 07:09:13;;;;;;;77.63;34.47;;;;;;;;;;5052832;28;20080;-82
2021/03/25 07:11:40;;;;;;;69.05;33.88;;;;;;;;;;5037671;28;20400;-83
2021/03/25 07:14:08;;;;;;;56.28;33.20;;;;;;;;;;5054480;28;20093;-81
2021/03/25 07:16:40;;;;;;;66.30;33.55;;;;;;;;;;5072560;28;20309;-81
2021/03/25 07:19:11;;;;;;;63.95;34.05;;;;;;;;;;5054827;28;20052;-81
2021/03/25 07:21:38;;;;;;;65.93;33.17;;;;;;;;;;5073863;28;20048;-81
2021/03/25 07:24:05;;;;;;;64.38;34.30;;;;;;;;;;5080193;28;20044;-81
2021/03/25 07:26:41;;;;;;;65.95;35.17;;;;;;;;;;5058666;28;20448;-82
2021/03/25 07:29:10;;;;;;;64.82;35.15;;;;;;;;;;5071757;28;20055;-81
2021/03/25 07:31:49;;;;;;;75.30;36.08;;;;;;;;;;5072770;28;20098;-81
2021/03/25 07:34:29;;;;;;;63.05;35.63;;;;;;;;;;5048620;28;20113;-82
2021/03/25 07:36:59;;;;;;;65.57;34.97;;;;;;;;;;5076481;28;20056;-82
2021/03/25 07:39:44;;;;;;;70.57;34.08;;;;;;;;;;5066777;28;20332;-82
2021/03/25 07:42:10;;;;;;;65.18;33.97;;;;;;;;;;5058879;28;20127;-81
2021/03/25 07:44:38;;;;;;;74.10;33.78;;;;;;;;;;5065732;28;20322;-81
2021/03/25 07:47:26;;;;;;;65.90;34.70;;;;;;;;;;5075017;28;20177;-81
2021/03/25 07:50:18;;;;;;;66.68;35.67;;;;;;;;;;5054106;28;20045;-81
2021/03/25 07:52:44;;;;;;;75.38;36.20;;;;;;;;;;5071901;28;20048;-82
2021/03/25 07:55:21;;;;;;;73.10;35.03;;;;;;;;;;5060783;28;20055;-81
2021/03/25 07:57:49;;;;;;;65.47;32.05;;;;;;;;;;5068685;28;20079;-80
2021/03/25 08:00:46;;;;;;;65.18;33.63;;;;;;;;;;5070706;28;20048;-82
2021/03/25 08:03:14;;;;;;;66.18;32.15;;;;;;;;;;5068713;28;20055;-81
2021/03/25 08:05:46;;;;;;;59.70;28.95;;;;;;;;;;5053360;28;20048;-81
2021/03/25 08:08:21;;;;;;;65.43;33.00;;;;;;;;;;5052015;28;20144;-82
2021/03/25 08:10:49;;;;;;;68.00;31.88;;;;;;;;;;5049146;28;20226;-82
2021/03/25 08:13:24;;;;;;;66.72;32.83;;;;;;;;;;5069204;28;20044;-82
2021/03/25 08:16:01;;;;;;;54.35;31.60;;;;;;;;;;5034863;28;20475;-83
2021/03/25 08:18:50;;;;;;;59.05;29.95;;;;;;;;;;5048580;28;20049;-82
2021/03/25 08:21:22;;;;;;;64.28;30.95;;;;;;;;;;5057253;28;20313;-82
2021/03/25 08:24:07;;;;;;;55.70;30.50;;;;;;;;;;5067061;28;20122;-82
2021/03/25 08:26:52;;;;;;;66.03;31.25;;;;;;;;;;5060982;28;20056;-81
2021/03/25 08:29:39;;;;;;;51.28;28.08;;;;;;;;;;5039059;28;20246;-83
2021/03/25 08:32:11;;;;;;;58.15;29.08;;;;;;;;;;5074901;28;20197;-81
2021/03/25 08:34:57;;;;;;;58.42;28.35;;;;;;;;;;5067443;28;20146;-82
2021/03/25 08:37:38;;;;;;;52.13;27.50;;;;;;;;;;5078852;28;20141;-82
2021/03/25 08:40:10;;;;;;;52.65;28.15;;;;;;;;;;5083565;28;20075;-82
2021/03/25 08:42:50;;;;;;;51.03;28.73;;;;;;;;;;5088040;28;20028;-82
2021/03/25 08:45:26;;;;;;;44.60;22.90;;;;;;;;;;5080424;28;20125;-82
2021/03/25 08:47:56;;;;;;;46.45;23.88;;;;;;;;;;5077500;28;20049;-83
2021/03/25 08:50:50;;;;;;;51.30;25.52;;;;;;;;;;5044577;28;20207;-81
2021/03/25 08:53:29;;;;;;;42.83;21.55;;;;;;;;;;5057472;28;20048;-82
2021/03/25 08:56:01;;;;;;;45.90;25.17;;;;;;;;;;5069147;28;20055;-82
2021/03/25 08:58:32;;;;;;;40.97;23.08;;;;;;;;;;5066206;28;20059;-82
2021/03/25 09:01:14;;;;;;;49.30;25.38;;;;;;;;;;5080277;28;20045;-85
2021/03/25 09:03:48;;;;;;;38.15;21.85;;;;;;;;;;5083830;28;20060;-82
2021/03/25 09:06:24;;;;;;;38.75;20.75;;;;;;;;;;5065246;28;20057;-84
2021/03/25 09:08:57;;;;;;;45.45;24.38;;;;;;;;;;5073106;28;20219;-82
2021/03/25 09:11:25;;;;;;;43.08;22.52;;;;;;;;;;5072379;28;20044;-83
2021/03/25 09:13:56;;;;;;;52.00;23.27;;;;;;;;;;5072929;28;20404;-81
2021/03/25 09:16:31;;;;;;;35.42;20.33;;;;;;;;;;5053480;28;20102;-82
2021/03/25 09:18:57;;;;;;;36.58;18.85;;;;;;;;;;5070931;28;20063;-82
2021/03/25 09:21:31;;;;;;;37.78;20.23;;;;;;;;;;5048864;28;20045;-82
2021/03/25 09:24:01;;;;;;;37.55;19.45;;;;;;;;;;5054048;28;20045;-84
2021/03/25 09:26:45;;;;;;;30.38;18.02;;;;;;;;;;5057104;28;20234;-82
2021/03/25 09:29:15;;;;;;;37.47;20.95;;;;;;;;;;5055674;28;20056;-83
2021/03/25 09:32:06;;;;;;;34.50;18.80;;;;;;;;;;5071115;28;20251;-82
2021/03/25 09:34:35;;;;;;;41.05;20.05;;;;;;;;;;5051921;28;20538;-83
2021/03/25 09:37:04;;;;;;;37.22;19.33;;;;;;;;;;5045402;28;20320;-82
2021/03/25 09:39:35;;;;;;;34.83;17.60;;;;;;;;;;5052974;28;20105;-82
2021/03/25 09:42:03;;;;;;;40.13;19.90;;;;;;;;;;5054480;28;20294;-82
2021/03/25 09:44:50;;;;;;;28.10;16.23;;;;;;;;;;5030154;28;20049;-82
2021/03/25 09:47:30;;;;;;;31.63;16.63;;;;;;;;;;5058217;28;20057;-82
2021/03/25 09:50:16;;;;;;;28.63;15.73;;;;;;;;;;5033262;28;20087;-84
2021/03/25 09:52:47;;;;;;;35.10;16.77;;;;;;;;;;5032704;28;20298;-82
2021/03/25 09:55:20;;;;;;;26.15;16.38;;;;;;;;;;5064628;28;20053;-82
2021/03/25 09:57:51;;;;;;;31.35;18.05;;;;;;;;;;5038528;28;20049;-82
2021/03/25 10:00:27;;;;;;;34.00;17.42;;;;;;;;;;5052470;28;20230;-82
2021/03/25 10:03:04;;;;;;;32.95;17.33;;;;;;;;;;5044657;28;20202;-82
2021/03/25 10:05:41;;;;;;;31.77;15.93;;;;;;;;;;5046454;28;20055;-82
2021/03/25 10:08:19;;;;;;;29.33;16.00;;;;;;;;;;5053344;28;20041;-82
2021/03/25 10:10:49;;;;;;;32.85;16.20;;;;;;;;;;5049846;28;20099;-82
2021/03/25 10:13:34;;;;;;;27.40;16.70;;;;;;;;;;5054493;28;20048;-82
2021/03/25 10:16:15;;;;;;;26.08;14.88;;;;;;;;;;5038794;28;20045;-82
2021/03/25 10:19:09;;;;;;;25.05;14.23;;;;;;;;;;5172401;22;20039;-83
2021/03/25 10:21:45;;;;;;;25.65;14.57;;;;;;;;;;5110385;28;20427;-82
2021/03/25 10:24:21;;;;;;;25.00;15.10;;;;;;;;;;5104918;28;20123;-82
2021/03/25 10:26:47;;;;;;;;;;;;;;;;;;5109816;28;20040;-84
2021/03/25 10:29:20;;;;;;;25.63;12.52;;;;;;;;;;5108785;28;20353;-82
2021/03/25 10:31:48;;;;;;;21.98;10.93;;;;;;;;;;5112617;28;20048;-83
2021/03/25 10:34:18;;;;;;;18.83;10.85;;;;;;;;;;5111428;28;20346;-83
2021/03/25 10:37:17;;;;;;;21.35;11.02;;;;;;;;;;5106897;28;20143;-83
2021/03/25 10:39:44;;;;;;;18.42;11.38;;;;;;;;;;5084966;28;20112;-84
2021/03/25 10:42:24;;;;;;;17.38;10.55;;;;;;;;;;5109963;28;20067;-82
2021/03/25 10:44:51;;;;;;;27.23;13.30;;;;;;;;;;5110997;28;20184;-83
2021/03/25 10:47:19;;;;;;;19.23;10.20;;;;;;;;;;5111202;28;20043;-83
2021/03/25 10:49:55;;;;;;;19.10;10.80;;;;;;;;;;5111513;28;20051;-83
2021/03/25 10:52:41;;;;;;;22.48;11.68;;;;;;;;;;5115334;28;20362;-83
2021/03/25 10:55:22;;;;;;;22.63;11.88;;;;;;;;;;5115739;28;20241;-83
2021/03/25 10:57:50;;;;;;;18.65;10.68;;;;;;;;;;5106276;28;20048;-83
2021/03/25 11:00:34;;;;;;;19.70;11.80;;;;;;;;;;5114040;28;20246;-82
2021/03/25 11:03:03;;;;;;;15.90;10.07;;;;;;;;;;5107653;28;20093;-82
2021/03/25 11:05:56;;;;;;;17.15;9.27;;;;;;;;;;5106992;28;20036;-82
2021/03/25 11:08:30;;;;;;;12.70;7.30;;;;;;;;;;5088849;28;20063;-84
2021/03/25 11:10:58;;;;;;;21.17;10.10;;;;;;;;;;5088340;28;20040;-83
2021/03/25 11:13:25;;;;;;;23.05;10.75;;;;;;;;;;5090462;28;20044;-83
2021/03/25 11:15:56;;;;;;;20.55;10.90;;;;;;;;;;5095414;28;20056;-82
2021/03/25 11:18:40;;;;;;;13.63;9.15;;;;;;;;;;5113471;28;20247;-83
2021/03/25 11:21:36;;;;;;;14.95;8.18;;;;;;;;;;5110458;28;20098;-83
2021/03/25 11:24:16;;;;;;;14.95;8.10;;;;;;;;;;5099175;28;20044;-83
2021/03/25 11:27:01;;;;;;;14.52;7.55;;;;;;;;;;5112166;28;20381;-83
2021/03/25 11:29:28;;;;;;;17.67;7.57;;;;;;;;;;5122791;28;20062;-82
2021/03/25 11:32:32;;;;;;;14.13;8.38;;;;;;;;;;5125246;27;20035;-83
2021/03/25 11:35:18;;;;;;;18.90;8.60;;;;;;;;;;5100362;27;20114;-84
2021/03/25 11:37:47;;;;;;;15.27;8.75;;;;;;;;;;5123312;28;20043;-83
2021/03/25 11:40:17;;;;;;;16.40;8.23;;;;;;;;;;5115701;28;20263;-83
2021/03/25 11:42:44;;;;;;;17.17;8.45;;;;;;;;;;5110326;27;20096;-82
2021/03/25 11:45:30;;;;;;;21.00;9.60;;;;;;;;;;5102080;28;20040;-82
2021/03/25 11:48:20;;;;;;;13.43;7.97;;;;;;;;;;5100205;28;20157;-82
2021/03/25 11:50:47;;;;;;;17.90;8.15;;;;;;;;;;5098620;28;20299;-82
2021/03/25 11:53:28;;;;;;;21.40;9.68;;;;;;;;;;5108760;28;20047;-82
2021/03/25 11:55:54;;;;;;;15.23;9.23;;;;;;;;;;5111878;28;20056;-81
2021/03/25 11:58:22;;;;;;;19.70;8.32;;;;;;;;;;5120038;28;20268;-82
2021/03/25 12:01:03;;;;;;;23.33;9.18;;;;;;;;;;5116291;28;20185;-82
2021/03/25 12:03:34;;;;;;;13.63;8.02;;;;;;;;;;5106462;28;20317;-84
2021/03/25 12:06:15;;;;;;;17.33;8.60;;;;;;;;;;5088279;28;20060;-82
2021/03/25 12:08:45;;;;;;;19.10;8.63;;;;;;;;;;5087606;28;20056;-82
2021/03/25 12:11:13;;;;;;;12.73;7.05;;;;;;;;;;5101462;28;20055;-82
2021/03/25 12:13:47;;;;;;;17.98;7.28;;;;;;;;;;5106914;28;20047;-82
2021/03/25 12:16:18;;;;;;;17.58;8.57;;;;;;;;;;5105681;28;20043;-82
2021/03/25 12:18:46;;;;;;;18.88;7.90;;;;;;;;;;5101043;28;20075;-83
2021/03/25 12:21:14;;;;;;;19.52;7.32;;;;;;;;;;5095868;28;20161;-83
2021/03/25 12:23:44;;;;;;;16.98;7.78;;;;;;;;;;5124452;28;20047;-83
2021/03/25 12:26:15;;;;;;;20.08;8.38;;;;;;;;;;5124386;28;20332;-81
2021/03/25 12:28:41;;;;;;;20.65;7.72;;;;;;;;;;5129888;28;20099;-81
2021/03/25 12:31:26;;;;;;;20.25;8.52;;;;;;;;;;5131293;28;20036;-81
2021/03/25 12:34:21;;;;;;;17.58;8.65;;;;;;;;;;5113415;28;20394;-82
2021/03/25 12:36:50;;;;;;;16.98;9.00;;;;;;;;;;5101331;28;20392;-82
2021/03/25 12:39:36;;;;;;;21.48;8.60;;;;;;;;;;5091709;28;20052;-82
2021/03/25 12:42:02;;;;;;;19.48;9.32;;;;;;;;;;5096933;28;20059;-81
2021/03/25 12:44:29;;;;;;;16.33;8.05;;;;;;;;;;5083958;28;20098;-81
2021/03/25 12:47:05;;;;;;;20.48;8.48;;;;;;;;;;5097231;28;20479;-82
2021/03/25 12:49:52;;;;;;;18.48;9.95;;;;;;;;;;5108162;28;20083;-80
2021/03/25 12:52:18;;;;;;;17.42;9.10;;;;;;;;;;5105223;28;20051;-82
2021/03/25 12:54:45;;;;;;;18.88;10.20;;;;;;;;;;5098598;28;20082;-82
2021/03/25 12:57:11;;;;;;;26.48;9.93;;;;;;;;;;5087647;28;20044;-82
2021/03/25 12:59:47;;;;;;;17.20;9.93;;;;;;;;;;5093824;28;20047;-81
2021/03/25 13:02:14;;;;;;;21.42;10.23;;;;;;;;;;5104532;28;20326;-82
2021/03/25 13:04:43;;;;;;;20.95;11.15;;;;;;;;;;5090501;28;20039;-81
2021/03/25 13:07:09;;;;;;;23.30;10.32;;;;;;;;;;5105777;28;20051;-81
2021/03/25 13:09:39;;;;;;;21.60;11.65;;;;;;;;;;5107734;28;20047;-81
2021/03/25 13:12:06;;;;;;;23.85;11.80;;;;;;;;;;5103745;28;20039;-80
2021/03/25 13:14:32;;;;;;;18.77;10.75;;;;;;;;;;5091158;28;20044;-81
2021/03/25 13:17:01;;;;;;;24.58;10.65;;;;;;;;;;5089177;28;20062;-82
2021/03/25 13:19:48;;;;;;;20.52;10.18;;;;;;;;;;5101186;28;20109;-81
2021/03/25 13:22:16;;;;;;;17.77;8.80;;;;;;;;;;5100683;28;20063;-81
2021/03/25 13:24:42;;;;;;;19.83;10.38;;;;;;;;;;5109324;28;20450;-81
2021/03/25 13:27:12;;;;;;;21.75;10.55;;;;;;;;;;5111225;28;20363;-81
2021/03/25 13:29:41;;;;;;;16.58;8.98;;;;;;;;;;5109215;28;20327;-81
2021/03/25 13:32:10;;;;;;;17.60;8.65;;;;;;;;;;5109790;28;20147;-81
2021/03/25 13:34:36;;;;;;;14.90;8.73;;;;;;;;;;5108145;28;20054;-82
2021/03/25 13:37:02;;;;;;;18.02;10.02;;;;;;;;;;5110430;28;20047;-81
2021/03/25 13:39:28;;;;;;;22.40;10.18;;;;;;;;;;5112151;28;20058;-81
2021/03/25 13:41:57;;;;;;;20.30;10.52;;;;;;;;;;5117062;28;20047;-81
2021/03/25 13:44:26;;;;;;;17.50;9.82;;;;;;;;;;5113046;28;20083;-81
2021/03/25 13:46:55;;;;;;;23.73;10.18;;;;;;;;;;5112200;28;20039;-81
2021/03/25 13:49:23;;;;;;;19.08;10.85;;;;;;;;;;5112088;28;20313;-81
2021/03/25 13:51:50;;;;;;;22.13;10.32;;;;;;;;;;5123070;28;20179;-82
2021/03/25 13:54:19;;;;;;;17.30;9.95;;;;;;;;;;5125276;28;20435;-80
2021/03/25 13:56:50;;;;;;;27.02;11.82;;;;;;;;;;5112585;28;20226;-82
2021/03/25 13:59:22;;;;;;;27.73;12.85;;;;;;;;;;5109023;28;20112;-82
2021/03/25 14:01:54;;;;;;;21.88;11.60;;;;;;;;;;5109037;28;20055;-82
2021/03/25 14:04:24;;;;;;;26.08;13.25;;;;;;;;;;5102835;28;20415;-82
2021/03/25 14:06:50;;;;;;;23.33;11.93;;;;;;;;;;5109713;28;20569;-80
2021/03/25 14:09:19;;;;;;;23.08;11.60;;;;;;;;;;5109941;28;20106;-81
2021/03/25 14:11:46;;;;;;;26.38;12.68;;;;;;;;;;5111999;28;20043;-81
2021/03/25 14:14:18;;;;;;;29.40;12.35;;;;;;;;;;5120453;28;20134;-82
2021/03/25 14:16:47;;;;;;;28.73;13.20;;;;;;;;;;5105861;28;20048;-81
2021/03/25 14:19:14;;;;;;;24.38;13.40;;;;;;;;;;5103493;28;20052;-82
2021/03/25 14:21:48;;;;;;;22.27;12.00;;;;;;;;;;5097481;28;20044;-81
2021/03/25 14:24:14;;;;;;;21.65;10.77;;;;;;;;;;5107682;28;20047;-80
2021/03/25 14:26:44;;;;;;;23.55;12.32;;;;;;;;;;5108212;27;20100;-81
2021/03/25 14:29:10;;;;;;;27.75;13.73;;;;;;;;;;5103500;28;20048;-81
2021/03/25 14:31:39;;;;;;;29.00;14.85;;;;;;;;;;5101249;28;20047;-81
2021/03/25 14:34:06;;;;;;;18.83;10.52;;;;;;;;;;5098972;28;20307;-81
2021/03/25 14:36:32;;;;;;;22.77;9.98;;;;;;;;;;5103440;28;20220;-81
2021/03/25 14:38:58;;;;;;;21.27;10.35;;;;;;;;;;5110319;28;20111;-81
2021/03/25 14:41:27;;;;;;;23.13;10.85;;;;;;;;;;5101590;28;20426;-82
2021/03/25 14:43:56;;;;;;;17.77;10.88;;;;;;;;;;5107756;28;20050;-81
2021/03/25 14:46:25;;;;;;;18.77;10.00;;;;;;;;;;5089197;28;20257;-80
2021/03/25 14:48:53;;;;;;;21.90;9.80;;;;;;;;;;5088572;28;20104;-82
2021/03/25 14:51:42;;;;;;;16.30;7.90;;;;;;;;;;5088167;28;20056;-81